createdAt,value
2023-02-22T00:00:56.515Z,21.88
2023-02-22T00:03:26.587Z,21.89
2023-02-22T00:05:55.859Z,21.84
2023-02-22T00:08:25.882Z,21.83
2023-02-22T00:10:54.892Z,21.82
2023-02-22T00:13:22.389Z,21.82
2023-02-22T00:15:50.541Z,21.95
2023-02-22T00:18:20.385Z,21.99
2023-02-22T00:20:48.643Z,21.93
2023-02-22T00:23:18.912Z,21.92
2023-02-22T00:25:46.779Z,21.84
2023-02-22T00:28:17.185Z,21.83
2023-02-22T00:30:46.000Z,21.83
2023-02-22T00:33:15.387Z,21.98
2023-02-22T00:35:44.411Z,21.88
2023-02-22T00:38:12.645Z,21.87
2023-02-22T00:40:40.563Z,21.81
2023-02-22T00:43:08.240Z,21.82
2023-02-22T00:45:37.612Z,21.82
2023-02-22T00:48:06.796Z,21.88
2023-02-22T00:50:35.145Z,21.98
2023-02-22T00:53:04.469Z,21.94
2023-02-22T00:55:35.909Z,21.82
2023-02-22T00:58:04.480Z,21.85
2023-02-22T01:00:34.712Z,21.82
2023-02-22T01:03:04.174Z,21.84
2023-02-22T01:05:32.060Z,21.91
2023-02-22T01:08:01.152Z,22.00
2023-02-22T01:10:30.377Z,21.92
2023-02-22T01:13:00.006Z,21.89
2023-02-22T01:15:29.853Z,21.86
2023-02-22T01:17:58.993Z,21.79
2023-02-22T01:20:29.388Z,21.76
2023-02-22T01:22:59.530Z,21.92
2023-02-22T01:25:29.509Z,21.90
2023-02-22T01:27:58.032Z,21.88
2023-02-22T01:30:28.943Z,21.83
2023-02-22T01:32:58.288Z,21.80
2023-02-22T01:35:29.253Z,21.75
2023-02-22T01:37:57.116Z,21.89
2023-02-22T01:40:27.393Z,22.00
2023-02-22T01:42:57.870Z,21.98
2023-02-22T01:45:56.892Z,21.86
2023-02-22T01:48:30.710Z,21.90
2023-02-22T01:51:02.729Z,21.99
2023-02-22T01:53:34.201Z,21.93
2023-02-22T01:56:03.260Z,22.00
2023-02-22T01:58:33.849Z,22.06
2023-02-22T02:01:01.417Z,22.00
2023-02-22T02:03:33.855Z,21.94
2023-02-22T02:06:06.139Z,21.87
2023-02-22T02:08:42.573Z,21.85
2023-02-22T02:11:10.500Z,21.89
2023-02-22T02:13:38.707Z,22.00
2023-02-22T02:16:06.772Z,22.01
2023-02-22T02:18:34.395Z,21.97
2023-02-22T02:21:44.931Z,22.02
2023-02-22T02:24:49.215Z,21.94
2023-02-22T02:27:22.882Z,21.95
2023-02-22T02:30:27.273Z,22.01
2023-02-22T02:32:58.124Z,22.03
2023-02-22T02:35:48.232Z,21.93
2023-02-22T02:38:25.787Z,21.92
2023-02-22T02:41:03.664Z,21.86
2023-02-22T02:43:37.742Z,21.87
2023-02-22T02:46:09.305Z,21.95
2023-02-22T02:48:44.050Z,22.04
2023-02-22T02:51:13.505Z,21.94
2023-02-22T02:53:45.504Z,21.88
2023-02-22T02:56:13.319Z,21.88
2023-02-22T02:58:46.798Z,21.82
2023-02-22T03:01:24.694Z,21.84
2023-02-22T03:04:06.739Z,22.00
2023-02-22T03:06:57.483Z,21.88
2023-02-22T03:09:40.051Z,21.60
2023-02-22T03:12:26.035Z,21.82
2023-02-22T03:15:03.630Z,21.81
2023-02-22T03:17:41.761Z,21.72
2023-02-22T03:20:16.373Z,21.81
2023-02-22T03:22:52.020Z,21.97
2023-02-22T03:25:24.898Z,21.92
2023-02-22T03:28:03.706Z,21.95
2023-02-22T03:30:36.943Z,21.99
2023-02-22T03:33:08.791Z,21.98
2023-02-22T03:35:45.203Z,22.02
2023-02-22T03:38:15.810Z,22.09
2023-02-22T03:40:48.961Z,22.07
2023-02-22T03:43:20.998Z,21.97
2023-02-22T03:45:50.884Z,22.04
2023-02-22T03:48:25.948Z,21.99
2023-02-22T03:50:55.189Z,22.06
2023-02-22T03:53:23.013Z,22.07
2023-02-22T03:55:55.815Z,22.16
2023-02-22T03:58:27.126Z,22.10
2023-02-22T04:00:55.478Z,22.06
2023-02-22T04:03:24.024Z,22.10
2023-02-22T04:05:54.460Z,22.04
2023-02-22T04:08:23.416Z,22.00
2023-02-22T04:10:52.040Z,22.27
2023-02-22T04:13:23.524Z,22.15
2023-02-22T04:15:53.787Z,22.07
2023-02-22T04:18:21.751Z,22.07
2023-02-22T04:20:50.198Z,22.08
2023-02-22T04:23:36.517Z,22.08
2023-02-22T04:26:05.717Z,22.13
2023-02-22T04:28:33.545Z,22.27
2023-02-22T04:31:14.551Z,22.18
2023-02-22T04:33:43.035Z,22.16
2023-02-22T04:36:13.165Z,22.04
2023-02-22T04:38:42.307Z,22.18
2023-02-22T04:41:09.941Z,22.15
2023-02-22T04:43:37.607Z,22.27
2023-02-22T04:46:13.885Z,22.20
2023-02-22T04:48:41.626Z,22.23
2023-02-22T04:51:09.367Z,22.17
2023-02-22T04:53:38.325Z,22.16
2023-02-22T04:56:07.961Z,22.04
2023-02-22T04:58:35.230Z,21.67
2023-02-22T05:01:03.765Z,21.94
2023-02-22T05:03:31.344Z,21.98
2023-02-22T05:05:58.901Z,21.99
2023-02-22T05:08:26.518Z,21.97
2023-02-22T05:10:54.148Z,21.96
2023-02-22T05:13:23.159Z,22.03
2023-02-22T05:15:50.725Z,22.02
2023-02-22T05:18:18.296Z,22.10
2023-02-22T05:20:45.838Z,21.82
2023-02-22T05:23:13.362Z,21.74
2023-02-22T05:25:41.045Z,21.84
2023-02-22T05:28:12.385Z,22.04
2023-02-22T05:30:41.877Z,22.12
2023-02-22T05:33:10.639Z,22.11
2023-02-22T05:35:38.268Z,22.12
2023-02-22T05:38:06.680Z,22.17
2023-02-22T05:40:34.497Z,22.36
2023-02-22T05:43:02.246Z,22.12
2023-02-22T05:45:30.350Z,22.08
2023-02-22T05:47:59.653Z,22.03
2023-02-22T05:50:27.302Z,22.04
2023-02-22T05:52:55.926Z,22.08
2023-02-22T05:55:24.668Z,21.96
2023-02-22T05:57:52.755Z,22.08
2023-02-22T06:00:23.028Z,22.05
2023-02-22T06:02:55.053Z,22.06
2023-02-22T06:05:24.350Z,22.09
2023-02-22T06:07:51.880Z,22.13
2023-02-22T06:10:19.681Z,22.06
2023-02-22T06:12:47.686Z,22.11
2023-02-22T06:15:15.721Z,22.06
2023-02-22T06:17:43.698Z,22.10
2023-02-22T06:20:12.524Z,22.08
2023-02-22T06:22:41.474Z,22.02
2023-02-22T06:25:13.165Z,22.09
2023-02-22T06:27:41.855Z,22.07
2023-02-22T06:30:13.184Z,22.00
2023-02-22T06:32:41.156Z,22.00
2023-02-22T06:35:08.833Z,22.03
2023-02-22T06:37:36.602Z,22.04
2023-02-22T06:40:06.214Z,22.12
2023-02-22T06:42:34.455Z,22.11
2023-02-22T06:45:02.592Z,21.96
2023-02-22T06:47:30.392Z,22.09
2023-02-22T06:49:59.083Z,22.17
2023-02-22T06:52:26.881Z,22.10
2023-02-22T06:54:54.489Z,22.10
2023-02-22T06:57:23.731Z,22.09
2023-02-22T06:59:51.532Z,22.02
2023-02-22T07:02:19.255Z,22.14
2023-02-22T07:04:46.904Z,22.11
2023-02-22T07:07:14.601Z,22.13
2023-02-22T07:09:45.811Z,22.04
2023-02-22T07:12:13.565Z,21.97
2023-02-22T07:14:43.282Z,22.06
2023-02-22T07:17:11.198Z,22.04
2023-02-22T07:19:38.820Z,22.10
2023-02-22T07:22:06.442Z,22.02
2023-02-22T07:24:34.080Z,22.02
2023-02-22T07:27:02.044Z,22.17
2023-02-22T07:29:29.613Z,22.09
2023-02-22T07:31:58.708Z,21.99
2023-02-22T07:34:26.536Z,22.13
2023-02-22T07:36:54.070Z,22.07
2023-02-22T07:39:21.602Z,22.00
2023-02-22T07:41:49.262Z,22.09
2023-02-22T07:44:23.619Z,22.07
2023-02-22T07:46:51.284Z,21.99
2023-02-22T07:49:20.381Z,22.09
2023-02-22T07:51:48.019Z,22.17
2023-02-22T07:54:15.796Z,22.03
2023-02-22T07:56:47.453Z,22.06
2023-02-22T07:59:15.088Z,22.04
2023-02-22T08:01:42.666Z,22.06
2023-02-22T08:04:11.568Z,22.03
2023-02-22T08:06:41.916Z,22.19
2023-02-22T08:09:09.906Z,22.18
2023-02-22T08:11:37.481Z,22.26
2023-02-22T08:14:05.106Z,22.23
2023-02-22T08:16:32.889Z,22.14
2023-02-22T08:19:00.675Z,22.11
2023-02-22T08:21:28.543Z,22.12
2023-02-22T08:23:57.984Z,22.38
2023-02-22T08:26:25.765Z,22.47
2023-02-22T08:28:53.317Z,22.24
2023-02-22T08:31:21.172Z,22.19
2023-02-22T08:33:49.674Z,22.08
2023-02-22T08:36:17.780Z,22.06
2023-02-22T08:38:45.325Z,22.01
2023-02-22T08:41:15.317Z,22.30
2023-02-22T08:43:43.332Z,22.44
2023-02-22T08:46:11.107Z,22.23
2023-02-22T08:48:38.750Z,22.13
2023-02-22T08:51:06.465Z,22.10
2023-02-22T08:53:34.246Z,22.15
2023-02-22T08:56:01.858Z,22.13
2023-02-22T08:58:30.963Z,22.27
2023-02-22T09:00:58.661Z,22.23
2023-02-22T09:03:26.329Z,22.12
2023-02-22T09:05:54.044Z,22.14
2023-02-22T09:08:21.837Z,22.07
2023-02-22T09:10:50.892Z,22.09
2023-02-22T09:13:18.587Z,22.14
2023-02-22T09:15:47.635Z,22.36
2023-02-22T09:18:15.720Z,22.21
2023-02-22T09:20:43.370Z,22.11
2023-02-22T09:23:11.239Z,22.23
2023-02-22T09:25:38.861Z,22.20
2023-02-22T09:28:06.870Z,22.03
2023-02-22T09:30:36.000Z,22.31
2023-02-22T09:33:08.086Z,22.22
2023-02-22T09:35:35.806Z,22.20
2023-02-22T09:38:05.470Z,22.20
2023-02-22T09:40:35.652Z,22.47
2023-02-22T09:43:16.318Z,22.27
2023-02-22T09:45:55.059Z,22.21
2023-02-22T09:48:24.886Z,22.24
2023-02-22T09:50:54.021Z,22.24
2023-02-22T09:53:26.455Z,22.16
2023-02-22T09:55:55.897Z,22.24
2023-02-22T09:58:29.199Z,22.28
2023-02-22T10:01:00.836Z,22.13
2023-02-22T10:03:36.837Z,22.22
2023-02-22T10:06:10.594Z,22.36
2023-02-22T10:08:40.223Z,22.34
2023-02-22T10:11:17.119Z,22.33
2023-02-22T10:13:55.386Z,22.18
2023-02-22T10:16:30.548Z,22.11
2023-02-22T10:19:17.287Z,22.12
2023-02-22T10:22:01.377Z,22.12
2023-02-22T10:24:39.261Z,22.24
2023-02-22T10:27:10.516Z,22.22
2023-02-22T10:29:41.847Z,22.23
2023-02-22T10:32:15.243Z,22.33
2023-02-22T10:34:48.126Z,22.32
2023-02-22T10:37:26.015Z,22.27
2023-02-22T10:39:59.292Z,22.18
2023-02-22T10:42:28.013Z,22.22
2023-02-22T10:44:55.609Z,22.14
2023-02-22T10:47:24.245Z,22.17
2023-02-22T10:49:56.952Z,22.11
2023-02-22T10:52:26.795Z,21.90
2023-02-22T10:55:06.098Z,22.00
2023-02-22T10:57:42.673Z,22.15
2023-02-22T11:00:20.080Z,22.10
2023-02-22T11:02:53.043Z,22.12
2023-02-22T11:05:41.432Z,21.97
2023-02-22T11:08:25.833Z,22.01
2023-02-22T11:10:56.443Z,22.12
2023-02-22T11:13:29.273Z,22.06
2023-02-22T11:16:00.205Z,22.09
2023-02-22T11:18:31.612Z,22.07
2023-02-22T11:21:06.520Z,22.04
2023-02-22T11:23:34.662Z,21.92
2023-02-22T11:26:10.531Z,21.91
2023-02-22T11:28:43.003Z,21.95
2023-02-22T11:31:15.810Z,21.99
2023-02-22T11:33:51.886Z,22.04
2023-02-22T11:36:34.633Z,22.10
2023-02-22T11:39:02.688Z,22.04
2023-02-22T11:41:31.292Z,21.98
2023-02-22T11:44:21.086Z,21.96
2023-02-22T11:46:49.132Z,21.95
2023-02-22T11:49:18.486Z,21.83
2023-02-22T11:52:00.138Z,21.93
2023-02-22T11:54:45.506Z,21.94
2023-02-22T11:57:26.591Z,21.82
2023-02-22T12:00:06.353Z,22.07
2023-02-22T12:02:57.342Z,22.13
2023-02-22T12:05:40.268Z,22.16
2023-02-22T12:08:21.101Z,22.19
2023-02-22T12:11:01.537Z,22.15
2023-02-22T12:13:41.553Z,22.09
2023-02-22T12:16:19.977Z,22.02
2023-02-22T12:19:03.570Z,21.95
2023-02-22T12:21:34.225Z,21.88
2023-02-22T12:24:07.645Z,21.87
2023-02-22T12:26:37.896Z,21.73
2023-02-22T12:29:12.949Z,21.77
2023-02-22T12:31:45.422Z,21.74
2023-02-22T12:34:25.208Z,21.80
2023-02-22T12:36:55.308Z,21.66
2023-02-22T12:39:52.414Z,21.58
2023-02-22T12:42:26.292Z,21.69
2023-02-22T12:44:59.595Z,21.80
2023-02-22T12:47:36.004Z,21.61
2023-02-22T12:50:10.864Z,21.73
2023-02-22T12:52:45.142Z,21.59
2023-02-22T12:55:20.737Z,21.67
2023-02-22T12:57:54.552Z,21.73
2023-02-22T13:00:25.443Z,21.75
2023-02-22T13:03:01.261Z,21.82
2023-02-22T13:05:34.498Z,21.85
2023-02-22T13:08:17.888Z,21.92
2023-02-22T13:11:09.257Z,22.04
2023-02-22T13:13:43.547Z,21.85
2023-02-22T13:16:22.523Z,22.07
2023-02-22T13:18:56.645Z,22.07
2023-02-22T13:21:32.397Z,22.11
2023-02-22T13:24:08.515Z,22.09
2023-02-22T13:26:44.705Z,22.07
2023-02-22T13:29:17.520Z,22.11
2023-02-22T13:32:05.634Z,22.10
2023-02-22T13:35:10.204Z,21.96
2023-02-22T13:38:11.617Z,21.90
2023-02-22T13:41:06.273Z,22.01
2023-02-22T13:44:08.748Z,22.04
2023-02-22T13:47:03.001Z,22.08
2023-02-22T13:49:52.481Z,22.11
2023-02-22T13:52:24.878Z,22.03
2023-02-22T13:54:56.119Z,21.87
2023-02-22T13:57:27.376Z,21.99
2023-02-22T14:00:24.854Z,21.83
2023-02-22T14:03:02.007Z,21.79
2023-02-22T14:05:37.714Z,21.82
2023-02-22T14:08:06.280Z,21.84
2023-02-22T14:10:46.928Z,21.78
2023-02-22T14:13:16.012Z,21.85
2023-02-22T14:16:20.291Z,21.84
2023-02-22T14:18:50.093Z,21.84
2023-02-22T14:21:19.106Z,21.82
2023-02-22T14:23:48.111Z,21.78
2023-02-22T14:26:20.756Z,21.76
2023-02-22T14:28:54.586Z,21.68
2023-02-22T14:31:35.869Z,21.62
2023-02-22T14:34:09.802Z,21.70
2023-02-22T14:36:44.908Z,20.71
2023-02-22T14:39:19.615Z,21.25
2023-02-22T14:41:53.361Z,21.42
2023-02-22T14:44:26.048Z,21.26
2023-02-22T14:47:00.508Z,21.29
2023-02-22T14:49:33.480Z,20.06
2023-02-22T14:52:06.640Z,21.09
2023-02-22T14:54:46.378Z,21.45
2023-02-22T14:57:21.072Z,20.99
2023-02-22T15:00:01.502Z,21.10
2023-02-22T15:02:38.975Z,21.04
2023-02-22T15:05:07.271Z,21.20
2023-02-22T15:07:34.774Z,21.13
2023-02-22T15:10:19.013Z,21.29
2023-02-22T15:12:53.190Z,21.15
2023-02-22T15:15:23.682Z,21.21
2023-02-22T15:17:56.737Z,21.29
2023-02-22T15:20:26.030Z,21.33
2023-02-22T15:22:59.323Z,21.28
2023-02-22T15:25:29.742Z,21.28
2023-02-22T15:28:02.773Z,21.32
2023-02-22T15:30:33.192Z,21.43
2023-02-22T15:33:29.417Z,21.29
2023-02-22T15:35:58.247Z,21.42
2023-02-22T15:38:30.535Z,21.46
2023-02-22T15:41:03.234Z,21.47
2023-02-22T15:43:31.422Z,21.47
2023-02-22T15:46:00.074Z,21.53
2023-02-22T15:48:29.843Z,21.54
2023-02-22T15:51:05.228Z,21.42
2023-02-22T15:53:41.812Z,21.43
2023-02-22T15:56:14.464Z,21.35
2023-02-22T15:58:44.020Z,21.41
2023-02-22T16:01:13.717Z,21.36
2023-02-22T16:03:46.454Z,21.35
2023-02-22T16:06:24.760Z,21.36
2023-02-22T16:08:55.472Z,21.43
2023-02-22T16:11:27.250Z,21.42
2023-02-22T16:13:55.397Z,21.34
2023-02-22T16:16:28.256Z,21.37
2023-02-22T16:19:26.300Z,21.32
2023-02-22T16:21:56.490Z,21.32
2023-02-22T16:24:28.183Z,21.33
2023-02-22T16:27:18.371Z,21.29
2023-02-22T16:30:03.239Z,21.30
2023-02-22T16:32:32.676Z,21.33
2023-02-22T16:35:01.972Z,21.29
2023-02-22T16:37:29.805Z,21.44
2023-02-22T16:39:57.360Z,21.33
2023-02-22T16:42:25.126Z,21.47
2023-02-22T16:44:53.384Z,21.36
2023-02-22T16:47:21.454Z,21.34
2023-02-22T16:49:50.713Z,21.44
2023-02-22T16:52:20.376Z,21.48
2023-02-22T16:54:49.327Z,21.47
2023-02-22T16:57:20.094Z,21.37
2023-02-22T16:59:49.029Z,21.41
2023-02-22T17:02:17.836Z,21.58
2023-02-22T17:04:45.806Z,21.45
2023-02-22T17:07:13.304Z,21.41
2023-02-22T17:09:42.496Z,21.32
2023-02-22T17:12:10.436Z,21.33
2023-02-22T17:14:38.286Z,21.40
2023-02-22T17:17:05.934Z,21.40
2023-02-22T17:19:33.581Z,21.36
2023-02-22T17:22:01.254Z,21.37
2023-02-22T17:24:28.908Z,21.32
2023-02-22T17:26:58.695Z,21.29
2023-02-22T17:29:26.332Z,21.36
2023-02-22T17:31:54.565Z,21.34
2023-02-22T17:34:22.401Z,21.33
2023-02-22T17:36:50.000Z,21.24
2023-02-22T17:39:17.661Z,21.29
2023-02-22T17:41:45.280Z,21.26
2023-02-22T17:44:14.507Z,21.38
2023-02-22T17:46:42.299Z,21.36
2023-02-22T17:49:09.935Z,21.34
2023-02-22T17:51:41.042Z,21.39
2023-02-22T17:54:10.375Z,21.33
2023-02-22T17:56:38.088Z,21.42
2023-02-22T17:59:05.835Z,21.23
2023-02-22T18:01:35.123Z,21.30
2023-02-22T18:04:03.354Z,21.34
2023-02-22T18:06:32.068Z,21.37
2023-02-22T18:09:00.874Z,21.38
2023-02-22T18:11:29.730Z,21.45
2023-02-22T18:13:58.522Z,21.33
2023-02-22T18:16:26.540Z,21.36
2023-02-22T18:18:56.461Z,21.41
2023-02-22T18:21:24.131Z,21.17
2023-02-22T18:23:51.843Z,21.33
2023-02-22T18:26:20.715Z,21.29
2023-02-22T18:28:48.816Z,21.21
2023-02-22T18:31:19.562Z,21.26
2023-02-22T18:33:49.177Z,21.53
2023-02-22T18:36:19.567Z,21.21
2023-02-22T18:38:47.330Z,21.27
2023-02-22T18:41:17.299Z,21.32
2023-02-22T18:43:45.735Z,21.32
2023-02-22T18:46:16.080Z,21.34
2023-02-22T18:48:44.657Z,21.35
2023-02-22T18:51:14.369Z,21.32
2023-02-22T18:53:44.841Z,21.34
2023-02-22T18:56:15.988Z,21.29
2023-02-22T18:58:43.803Z,21.27
2023-02-22T19:01:16.244Z,21.28
2023-02-22T19:03:44.240Z,21.48
2023-02-22T19:06:11.782Z,21.29
2023-02-22T19:08:40.509Z,21.37
2023-02-22T19:11:11.573Z,21.30
2023-02-22T19:13:39.117Z,21.38
2023-02-22T19:16:07.758Z,21.38
2023-02-22T19:18:35.407Z,21.33
2023-02-22T19:21:05.912Z,21.21
2023-02-22T19:23:35.254Z,21.31
2023-02-22T19:26:04.440Z,21.27
2023-02-22T19:28:33.499Z,21.30
2023-02-22T19:31:11.958Z,21.37
2023-02-22T19:33:39.565Z,21.34
2023-02-22T19:36:08.352Z,21.38
2023-02-22T19:38:36.041Z,21.27
2023-02-22T19:41:10.031Z,21.28
2023-02-22T19:43:39.872Z,21.28
2023-02-22T19:46:07.921Z,21.18
2023-02-22T19:48:35.891Z,21.42
2023-02-22T19:51:05.059Z,21.28
2023-02-22T19:53:32.849Z,21.23
2023-02-22T19:56:00.528Z,21.20
2023-02-22T19:58:28.109Z,21.35
2023-02-22T20:00:57.097Z,21.26
2023-02-22T20:03:25.025Z,21.28
2023-02-22T20:05:56.822Z,21.33
2023-02-22T20:08:24.543Z,21.47
2023-02-22T20:10:52.158Z,21.29
2023-02-22T20:13:19.677Z,21.35
2023-02-22T20:15:47.204Z,21.32
2023-02-22T20:18:16.277Z,21.27
2023-02-22T20:20:44.057Z,21.29
2023-02-22T20:23:11.650Z,21.17
2023-02-22T20:25:39.732Z,21.33
2023-02-22T20:28:07.867Z,21.22
2023-02-22T20:30:37.430Z,21.37
2023-02-22T20:33:05.352Z,21.19
2023-02-22T20:35:35.056Z,21.34
2023-02-22T20:38:02.592Z,21.11
2023-02-22T20:40:30.249Z,21.20
2023-02-22T20:42:57.756Z,21.19
2023-02-22T20:45:25.375Z,21.12
2023-02-22T20:47:52.941Z,21.16
2023-02-22T20:50:20.447Z,21.12
2023-02-22T20:52:49.466Z,21.28
2023-02-22T20:55:17.279Z,21.19
2023-02-22T20:57:45.130Z,21.29
2023-02-22T21:00:14.351Z,21.29
2023-02-22T21:02:41.872Z,21.20
2023-02-22T21:05:12.317Z,21.19
2023-02-22T21:07:39.986Z,21.25
2023-02-22T21:10:09.723Z,21.14
2023-02-22T21:12:37.345Z,21.23
2023-02-22T21:15:05.243Z,21.19
2023-02-22T21:17:32.801Z,21.29
2023-02-22T21:20:00.384Z,21.23
2023-02-22T21:22:27.957Z,21.21
2023-02-22T21:24:56.610Z,21.05
2023-02-22T21:27:26.348Z,21.20
2023-02-22T21:29:53.913Z,21.14
2023-02-22T21:32:21.493Z,21.16
2023-02-22T21:34:49.357Z,21.04
2023-02-22T21:37:17.184Z,21.17
2023-02-22T21:39:44.838Z,21.12
2023-02-22T21:42:12.364Z,21.21
2023-02-22T21:44:41.576Z,21.20
2023-02-22T21:47:09.183Z,21.08
2023-02-22T21:49:37.027Z,21.13
2023-02-22T21:52:04.735Z,21.19
2023-02-22T21:54:32.370Z,21.18
2023-02-22T21:56:59.993Z,21.14
2023-02-22T21:59:27.504Z,21.23
2023-02-22T22:01:56.756Z,21.19
2023-02-22T22:04:27.086Z,21.18
2023-02-22T22:06:56.032Z,21.24
2023-02-22T22:09:25.303Z,21.19
2023-02-22T22:11:55.124Z,21.19
2023-02-22T22:14:24.295Z,21.07
2023-02-22T22:16:53.947Z,21.18
2023-02-22T22:19:23.509Z,21.14
2023-02-22T22:21:51.018Z,21.16
2023-02-22T22:24:19.139Z,21.22
2023-02-22T22:26:46.761Z,21.05
2023-02-22T22:29:14.672Z,21.10
2023-02-22T22:31:42.329Z,21.20
2023-02-22T22:34:09.936Z,21.08
2023-02-22T22:36:38.907Z,21.09
2023-02-22T22:39:06.600Z,21.12
2023-02-22T22:41:34.168Z,21.07
2023-02-22T22:44:01.677Z,20.96
2023-02-22T22:46:29.230Z,21.14
2023-02-22T22:48:57.012Z,21.14
2023-02-22T22:51:24.541Z,21.19
2023-02-22T22:53:53.588Z,21.15
2023-02-22T22:56:23.293Z,21.27
2023-02-22T22:58:51.113Z,21.08
2023-02-22T23:01:21.630Z,21.01
2023-02-22T23:03:55.116Z,21.19
2023-02-22T23:06:25.040Z,21.01
2023-02-22T23:09:00.201Z,21.04
2023-02-22T23:11:29.296Z,21.06
2023-02-22T23:13:57.141Z,21.10
2023-02-22T23:16:24.941Z,21.06
2023-02-22T23:18:52.530Z,21.19
2023-02-22T23:21:20.602Z,21.08
2023-02-22T23:23:48.150Z,21.03
2023-02-22T23:26:17.651Z,21.12
2023-02-22T23:28:47.301Z,21.06
2023-02-22T23:31:17.790Z,21.06
2023-02-22T23:33:47.195Z,21.10
2023-02-22T23:36:15.412Z,21.03
2023-02-22T23:38:43.816Z,21.12
2023-02-22T23:41:12.464Z,21.08
2023-02-22T23:43:42.944Z,21.11
2023-02-22T23:46:12.584Z,21.07
2023-02-22T23:48:41.028Z,21.05
2023-02-22T23:51:09.998Z,21.03
2023-02-22T23:53:39.145Z,21.09
2023-02-22T23:56:08.423Z,21.13
2023-02-22T23:58:37.494Z,21.10
